sensor_id;sensor_type;location;lat;lon;timestamp;temperature;humidity
22249;DHT22;67538;52.180;5.646;2023-06-22T00:00:14;17.00;99.90
22249;DHT22;67538;52.180;5.646;2023-06-22T00:02:41;16.90;99.90
22249;DHT22;67538;52.180;5.646;2023-06-22T00:05:08;16.90;99.90
22249;DHT22;67538;52.180;5.646;2023-06-22T00:07:37;16.80;99.90
22249;DHT22;67538;52.180;5.646;2023-06-22T00:10:04;16.70;99.90
22249;DHT22;67538;52.180;5.646;2023-06-22T00:12:32;16.70;99.90
22249;DHT22;67538;52.180;5.646;2023-06-22T00:14:59;16.70;99.90
22249;DHT22;67538;52.180;5.646;2023-06-22T00:17:26;16.70;99.90
22249;DHT22;67538;52.180;5.646;2023-06-22T00:19:53;16.70;99.90
22249;DHT22;67538;52.180;5.646;2023-06-22T00:22:20;16.70;99.90
22249;DHT22;67538;52.180;5.646;2023-06-22T00:24:55;16.70;99.90
22249;DHT22;67538;52.180;5.646;2023-06-22T00:27:22;16.70;99.90
22249;DHT22;67538;52.180;5.646;2023-06-22T00:29:49;16.60;99.90
22249;DHT22;67538;52.180;5.646;2023-06-22T00:32:16;16.60;99.90
22249;DHT22;67538;52.180;5.646;2023-06-22T00:34:44;16.60;99.90
22249;DHT22;67538;52.180;5.646;2023-06-22T00:37:11;16.50;99.90
22249;DHT22;67538;52.180;5.646;2023-06-22T00:39:38;16.50;99.90
22249;DHT22;67538;52.180;5.646;2023-06-22T00:42:07;16.50;99.90
22249;DHT22;67538;52.180;5.646;2023-06-22T00:44:34;16.40;99.90
22249;DHT22;67538;52.180;5.646;2023-06-22T00:47:02;16.30;99.90
22249;DHT22;67538;52.180;5.646;2023-06-22T00:49:29;16.40;99.90
22249;DHT22;67538;52.180;5.646;2023-06-22T00:51:57;16.40;99.90
22249;DHT22;67538;52.180;5.646;2023-06-22T00:54:24;16.30;99.90
22249;DHT22;67538;52.180;5.646;2023-06-22T00:56:53;16.30;99.90
22249;DHT22;67538;52.180;5.646;2023-06-22T00:59:23;16.20;99.90
22249;DHT22;67538;52.180;5.646;2023-06-22T01:01:51;16.20;99.90
22249;DHT22;67538;52.180;5.646;2023-06-22T01:04:18;16.20;99.90
22249;DHT22;67538;52.180;5.646;2023-06-22T01:06:58;16.10;99.90
22249;DHT22;67538;52.180;5.646;2023-06-22T01:09:32;16.10;99.90
22249;DHT22;67538;52.180;5.646;2023-06-22T01:12:05;16.00;99.90
22249;DHT22;67538;52.180;5.646;2023-06-22T01:14:38;16.00;99.90
22249;DHT22;67538;52.180;5.646;2023-06-22T01:17:08;15.90;99.90
22249;DHT22;67538;52.180;5.646;2023-06-22T01:19:39;15.90;99.90
22249;DHT22;67538;52.180;5.646;2023-06-22T01:22:10;15.90;99.90
22249;DHT22;67538;52.180;5.646;2023-06-22T01:24:48;15.80;99.90
22249;DHT22;67538;52.180;5.646;2023-06-22T01:27:28;15.80;99.90
22249;DHT22;67538;52.180;5.646;2023-06-22T01:30:01;15.80;99.90
22249;DHT22;67538;52.180;5.646;2023-06-22T01:32:34;15.80;99.90
22249;DHT22;67538;52.180;5.646;2023-06-22T01:35:04;15.80;99.90
22249;DHT22;67538;52.180;5.646;2023-06-22T01:37:34;15.70;99.90
22249;DHT22;67538;52.180;5.646;2023-06-22T01:40:03;15.70;99.90
22249;DHT22;67538;52.180;5.646;2023-06-22T01:42:32;15.60;99.90
22249;DHT22;67538;52.180;5.646;2023-06-22T01:45:01;15.60;99.90
22249;DHT22;67538;52.180;5.646;2023-06-22T01:47:28;15.60;99.90
22249;DHT22;67538;52.180;5.646;2023-06-22T01:49:56;15.70;99.90
22249;DHT22;67538;52.180;5.646;2023-06-22T01:52:23;15.70;99.90
22249;DHT22;67538;52.180;5.646;2023-06-22T01:54:50;15.70;99.90
22249;DHT22;67538;52.180;5.646;2023-06-22T01:57:18;15.70;99.90
22249;DHT22;67538;52.180;5.646;2023-06-22T01:59:50;15.70;99.90
22249;DHT22;67538;52.180;5.646;2023-06-22T02:02:21;15.70;99.90
22249;DHT22;67538;52.180;5.646;2023-06-22T02:04:57;15.70;99.90
22249;DHT22;67538;52.180;5.646;2023-06-22T02:07:29;15.70;99.90
22249;DHT22;67538;52.180;5.646;2023-06-22T02:09:58;15.60;99.90
22249;DHT22;67538;52.180;5.646;2023-06-22T02:12:27;15.60;99.90
22249;DHT22;67538;52.180;5.646;2023-06-22T02:14:55;15.50;99.90
22249;DHT22;67538;52.180;5.646;2023-06-22T02:17:25;15.50;99.90
22249;DHT22;67538;52.180;5.646;2023-06-22T02:19:53;15.50;99.90
22249;DHT22;67538;52.180;5.646;2023-06-22T02:22:20;15.50;99.90
22249;DHT22;67538;52.180;5.646;2023-06-22T02:24:47;15.40;99.90
22249;DHT22;67538;52.180;5.646;2023-06-22T02:27:14;15.40;99.90
22249;DHT22;67538;52.180;5.646;2023-06-22T02:29:41;15.40;99.90
22249;DHT22;67538;52.180;5.646;2023-06-22T02:32:08;15.40;99.90
22249;DHT22;67538;52.180;5.646;2023-06-22T02:34:37;15.40;99.90
22249;DHT22;67538;52.180;5.646;2023-06-22T02:37:04;15.30;99.90
22249;DHT22;67538;52.180;5.646;2023-06-22T02:39:31;15.30;99.90
22249;DHT22;67538;52.180;5.646;2023-06-22T02:41:58;15.30;99.90
22249;DHT22;67538;52.180;5.646;2023-06-22T02:44:25;15.20;99.90
22249;DHT22;67538;52.180;5.646;2023-06-22T02:46:53;15.20;99.90
22249;DHT22;67538;52.180;5.646;2023-06-22T02:49:20;15.20;99.90
22249;DHT22;67538;52.180;5.646;2023-06-22T02:51:49;15.10;99.90
22249;DHT22;67538;52.180;5.646;2023-06-22T02:54:16;15.00;99.90
22249;DHT22;67538;52.180;5.646;2023-06-22T02:56:43;15.00;99.90
22249;DHT22;67538;52.180;5.646;2023-06-22T02:59:11;15.00;99.90
22249;DHT22;67538;52.180;5.646;2023-06-22T03:01:38;15.00;99.90
22249;DHT22;67538;52.180;5.646;2023-06-22T03:04:06;15.00;99.90
22249;DHT22;67538;52.180;5.646;2023-06-22T03:06:34;14.90;99.90
22249;DHT22;67538;52.180;5.646;2023-06-22T03:09:03;15.00;99.90
22249;DHT22;67538;52.180;5.646;2023-06-22T03:11:31;14.90;99.90
22249;DHT22;67538;52.180;5.646;2023-06-22T03:13:58;14.90;99.90
22249;DHT22;67538;52.180;5.646;2023-06-22T03:16:26;14.90;99.90
22249;DHT22;67538;52.180;5.646;2023-06-22T03:18:53;14.90;99.90
22249;DHT22;67538;52.180;5.646;2023-06-22T03:21:22;14.90;99.90
22249;DHT22;67538;52.180;5.646;2023-06-22T03:23:49;14.90;99.90
22249;DHT22;67538;52.180;5.646;2023-06-22T03:26:18;15.00;99.90
22249;DHT22;67538;52.180;5.646;2023-06-22T03:28:45;14.90;99.90
22249;DHT22;67538;52.180;5.646;2023-06-22T03:31:13;14.90;99.90
22249;DHT22;67538;52.180;5.646;2023-06-22T03:33:40;14.90;99.90
22249;DHT22;67538;52.180;5.646;2023-06-22T03:36:07;15.00;99.90
22249;DHT22;67538;52.180;5.646;2023-06-22T03:38:35;15.00;99.90
22249;DHT22;67538;52.180;5.646;2023-06-22T03:41:02;15.10;99.90
22249;DHT22;67538;52.180;5.646;2023-06-22T03:43:31;15.10;99.90
22249;DHT22;67538;52.180;5.646;2023-06-22T03:45:58;15.10;99.90
22249;DHT22;67538;52.180;5.646;2023-06-22T03:48:25;15.10;99.90
22249;DHT22;67538;52.180;5.646;2023-06-22T03:50:53;15.00;99.90
22249;DHT22;67538;52.180;5.646;2023-06-22T03:53:20;15.00;99.90
22249;DHT22;67538;52.180;5.646;2023-06-22T03:55:50;15.10;99.90
22249;DHT22;67538;52.180;5.646;2023-06-22T03:58:18;15.10;99.90
22249;DHT22;67538;52.180;5.646;2023-06-22T04:00:48;15.10;99.90
22249;DHT22;67538;52.180;5.646;2023-06-22T04:03:15;15.00;99.90
22249;DHT22;67538;52.180;5.646;2023-06-22T04:05:44;15.10;99.90
22249;DHT22;67538;52.180;5.646;2023-06-22T04:08:12;15.10;99.90
22249;DHT22;67538;52.180;5.646;2023-06-22T04:10:39;15.20;99.90
22249;DHT22;67538;52.180;5.646;2023-06-22T04:13:07;15.20;99.90
22249;DHT22;67538;52.180;5.646;2023-06-22T04:15:34;15.20;99.90
22249;DHT22;67538;52.180;5.646;2023-06-22T04:18:03;15.20;99.90
22249;DHT22;67538;52.180;5.646;2023-06-22T04:20:31;15.30;99.90
22249;DHT22;67538;52.180;5.646;2023-06-22T04:22:58;15.40;99.90
22249;DHT22;67538;52.180;5.646;2023-06-22T04:25:25;15.50;99.90
22249;DHT22;67538;52.180;5.646;2023-06-22T04:27:52;15.50;99.90
22249;DHT22;67538;52.180;5.646;2023-06-22T04:30:20;15.50;99.90
22249;DHT22;67538;52.180;5.646;2023-06-22T04:32:47;15.60;99.90
22249;DHT22;67538;52.180;5.646;2023-06-22T04:35:23;15.60;99.90
22249;DHT22;67538;52.180;5.646;2023-06-22T04:37:50;15.70;99.90
22249;DHT22;67538;52.180;5.646;2023-06-22T04:40:21;15.90;99.90
22249;DHT22;67538;52.180;5.646;2023-06-22T04:42:48;16.00;99.90
22249;DHT22;67538;52.180;5.646;2023-06-22T04:45:19;16.20;99.90
22249;DHT22;67538;52.180;5.646;2023-06-22T04:47:47;16.30;99.90
22249;DHT22;67538;52.180;5.646;2023-06-22T04:50:14;16.40;99.90
22249;DHT22;67538;52.180;5.646;2023-06-22T04:52:44;16.50;99.90
22249;DHT22;67538;52.180;5.646;2023-06-22T04:55:12;16.70;99.90
22249;DHT22;67538;52.180;5.646;2023-06-22T04:57:44;16.80;99.90
22249;DHT22;67538;52.180;5.646;2023-06-22T05:00:15;17.00;99.90
22249;DHT22;67538;52.180;5.646;2023-06-22T05:02:43;17.20;99.90
22249;DHT22;67538;52.180;5.646;2023-06-22T05:05:11;17.40;99.90
22249;DHT22;67538;52.180;5.646;2023-06-22T05:07:41;17.50;99.90
22249;DHT22;67538;52.180;5.646;2023-06-22T05:10:11;17.60;99.90
22249;DHT22;67538;52.180;5.646;2023-06-22T05:12:39;17.70;99.90
22249;DHT22;67538;52.180;5.646;2023-06-22T05:15:09;17.70;99.90
22249;DHT22;67538;52.180;5.646;2023-06-22T05:17:37;17.80;99.90
22249;DHT22;67538;52.180;5.646;2023-06-22T05:20:09;17.90;99.90
22249;DHT22;67538;52.180;5.646;2023-06-22T05:22:36;18.00;99.90
22249;DHT22;67538;52.180;5.646;2023-06-22T05:25:05;18.00;99.90
22249;DHT22;67538;52.180;5.646;2023-06-22T05:27:34;18.10;99.90
22249;DHT22;67538;52.180;5.646;2023-06-22T05:30:06;18.20;99.90
22249;DHT22;67538;52.180;5.646;2023-06-22T05:32:33;18.30;99.90
22249;DHT22;67538;52.180;5.646;2023-06-22T05:35:00;18.40;99.90
22249;DHT22;67538;52.180;5.646;2023-06-22T05:37:28;18.50;99.90
22249;DHT22;67538;52.180;5.646;2023-06-22T05:39:55;18.60;99.90
22249;DHT22;67538;52.180;5.646;2023-06-22T05:42:23;18.80;99.90
22249;DHT22;67538;52.180;5.646;2023-06-22T05:44:52;18.90;99.90
22249;DHT22;67538;52.180;5.646;2023-06-22T05:47:20;19.20;99.90
22249;DHT22;67538;52.180;5.646;2023-06-22T05:49:48;19.30;99.90
22249;DHT22;67538;52.180;5.646;2023-06-22T05:52:15;19.50;99.90
22249;DHT22;67538;52.180;5.646;2023-06-22T05:54:42;19.60;99.90
22249;DHT22;67538;52.180;5.646;2023-06-22T05:57:09;19.60;99.90
22249;DHT22;67538;52.180;5.646;2023-06-22T05:59:37;19.60;99.90
22249;DHT22;67538;52.180;5.646;2023-06-22T06:02:05;19.70;99.90
22249;DHT22;67538;52.180;5.646;2023-06-22T06:04:32;19.90;99.90
22249;DHT22;67538;52.180;5.646;2023-06-22T06:07:00;20.00;99.90
22249;DHT22;67538;52.180;5.646;2023-06-22T06:09:27;20.10;99.90
22249;DHT22;67538;52.180;5.646;2023-06-22T06:11:54;20.20;99.90
22249;DHT22;67538;52.180;5.646;2023-06-22T06:14:21;20.30;99.90
22249;DHT22;67538;52.180;5.646;2023-06-22T06:16:49;20.30;99.90
22249;DHT22;67538;52.180;5.646;2023-06-22T06:19:17;20.30;99.90
22249;DHT22;67538;52.180;5.646;2023-06-22T06:21:44;20.30;99.90
22249;DHT22;67538;52.180;5.646;2023-06-22T06:24:12;20.20;99.90
22249;DHT22;67538;52.180;5.646;2023-06-22T06:26:39;20.30;99.90
22249;DHT22;67538;52.180;5.646;2023-06-22T06:29:06;20.30;99.90
22249;DHT22;67538;52.180;5.646;2023-06-22T06:31:33;20.50;99.90
22249;DHT22;67538;52.180;5.646;2023-06-22T06:34:01;20.60;99.90
22249;DHT22;67538;52.180;5.646;2023-06-22T06:36:30;20.80;99.90
22249;DHT22;67538;52.180;5.646;2023-06-22T06:38:57;20.90;99.90
22249;DHT22;67538;52.180;5.646;2023-06-22T06:41:24;21.20;99.90
22249;DHT22;67538;52.180;5.646;2023-06-22T06:43:51;21.40;99.90
22249;DHT22;67538;52.180;5.646;2023-06-22T06:46:19;21.60;99.90
22249;DHT22;67538;52.180;5.646;2023-06-22T06:48:46;21.80;99.90
22249;DHT22;67538;52.180;5.646;2023-06-22T06:51:13;22.00;99.90
22249;DHT22;67538;52.180;5.646;2023-06-22T06:53:42;22.50;99.90
22249;DHT22;67538;52.180;5.646;2023-06-22T06:56:09;23.10;99.90
22249;DHT22;67538;52.180;5.646;2023-06-22T06:58:40;23.00;99.90
22249;DHT22;67538;52.180;5.646;2023-06-22T07:01:07;22.80;99.90
22249;DHT22;67538;52.180;5.646;2023-06-22T07:03:35;22.90;99.90
22249;DHT22;67538;52.180;5.646;2023-06-22T07:06:02;22.90;99.90
22249;DHT22;67538;52.180;5.646;2023-06-22T07:08:29;22.80;99.90
22249;DHT22;67538;52.180;5.646;2023-06-22T07:10:57;22.90;99.90
22249;DHT22;67538;52.180;5.646;2023-06-22T07:13:26;23.20;99.90
22249;DHT22;67538;52.180;5.646;2023-06-22T07:15:53;23.50;99.90
22249;DHT22;67538;52.180;5.646;2023-06-22T07:18:20;23.60;99.90
22249;DHT22;67538;52.180;5.646;2023-06-22T07:20:47;23.60;99.90
22249;DHT22;67538;52.180;5.646;2023-06-22T07:23:15;23.60;99.90
22249;DHT22;67538;52.180;5.646;2023-06-22T07:25:43;23.70;99.90
22249;DHT22;67538;52.180;5.646;2023-06-22T07:28:11;24.00;99.90
22249;DHT22;67538;52.180;5.646;2023-06-22T07:30:38;24.00;99.90
22249;DHT22;67538;52.180;5.646;2023-06-22T07:33:06;23.80;99.90
22249;DHT22;67538;52.180;5.646;2023-06-22T07:35:34;23.70;99.90
22249;DHT22;67538;52.180;5.646;2023-06-22T07:38:01;23.90;99.90
22249;DHT22;67538;52.180;5.646;2023-06-22T07:40:29;24.00;99.90
22249;DHT22;67538;52.180;5.646;2023-06-22T07:42:56;24.10;99.90
22249;DHT22;67538;52.180;5.646;2023-06-22T07:45:25;24.20;99.90
22249;DHT22;67538;52.180;5.646;2023-06-22T07:47:52;24.40;99.90
22249;DHT22;67538;52.180;5.646;2023-06-22T07:50:19;24.50;99.90
22249;DHT22;67538;52.180;5.646;2023-06-22T07:52:46;24.50;99.90
22249;DHT22;67538;52.180;5.646;2023-06-22T07:55:14;24.30;99.90
22249;DHT22;67538;52.180;5.646;2023-06-22T07:57:41;24.30;99.90
22249;DHT22;67538;52.180;5.646;2023-06-22T08:00:09;24.20;99.90
22249;DHT22;67538;52.180;5.646;2023-06-22T08:02:42;24.40;99.90
22249;DHT22;67538;52.180;5.646;2023-06-22T08:05:10;25.10;99.90
22249;DHT22;67538;52.180;5.646;2023-06-22T08:07:37;25.20;99.90
22249;DHT22;67538;52.180;5.646;2023-06-22T08:10:06;25.20;99.90
22249;DHT22;67538;52.180;5.646;2023-06-22T08:12:33;25.10;99.90
22249;DHT22;67538;52.180;5.646;2023-06-22T08:15:00;25.10;99.90
22249;DHT22;67538;52.180;5.646;2023-06-22T08:17:27;25.10;99.90
22249;DHT22;67538;52.180;5.646;2023-06-22T08:19:56;25.00;99.90
22249;DHT22;67538;52.180;5.646;2023-06-22T08:22:23;24.90;99.90
22249;DHT22;67538;52.180;5.646;2023-06-22T08:24:50;24.90;99.90
22249;DHT22;67538;52.180;5.646;2023-06-22T08:27:17;24.90;99.90
22249;DHT22;67538;52.180;5.646;2023-06-22T08:29:46;24.90;99.90
22249;DHT22;67538;52.180;5.646;2023-06-22T08:32:15;24.90;99.90
22249;DHT22;67538;52.180;5.646;2023-06-22T08:34:42;25.10;99.90
22249;DHT22;67538;52.180;5.646;2023-06-22T08:37:11;25.10;99.90
22249;DHT22;67538;52.180;5.646;2023-06-22T08:39:38;25.40;99.90
22249;DHT22;67538;52.180;5.646;2023-06-22T08:42:06;25.40;99.90
22249;DHT22;67538;52.180;5.646;2023-06-22T08:44:33;25.40;99.90
22249;DHT22;67538;52.180;5.646;2023-06-22T08:47:00;25.60;99.90
22249;DHT22;67538;52.180;5.646;2023-06-22T08:49:27;25.60;99.90
22249;DHT22;67538;52.180;5.646;2023-06-22T08:51:55;25.30;99.90
22249;DHT22;67538;52.180;5.646;2023-06-22T08:54:24;25.20;99.90
22249;DHT22;67538;52.180;5.646;2023-06-22T08:56:51;25.10;99.90
22249;DHT22;67538;52.180;5.646;2023-06-22T08:59:18;25.00;99.90
22249;DHT22;67538;52.180;5.646;2023-06-22T09:01:45;24.80;99.90
22249;DHT22;67538;52.180;5.646;2023-06-22T09:04:14;24.70;99.90
22249;DHT22;67538;52.180;5.646;2023-06-22T09:06:42;24.60;99.90
22249;DHT22;67538;52.180;5.646;2023-06-22T09:09:12;24.50;99.90
22249;DHT22;67538;52.180;5.646;2023-06-22T09:11:41;24.60;99.90
22249;DHT22;67538;52.180;5.646;2023-06-22T09:14:08;24.70;99.90
22249;DHT22;67538;52.180;5.646;2023-06-22T09:16:35;24.70;99.90
22249;DHT22;67538;52.180;5.646;2023-06-22T09:19:02;24.80;99.90
22249;DHT22;67538;52.180;5.646;2023-06-22T09:21:30;25.00;99.90
22249;DHT22;67538;52.180;5.646;2023-06-22T09:23:57;25.00;99.90
22249;DHT22;67538;52.180;5.646;2023-06-22T09:26:24;25.00;99.90
22249;DHT22;67538;52.180;5.646;2023-06-22T09:28:52;24.90;99.90
22249;DHT22;67538;52.180;5.646;2023-06-22T09:31:19;24.90;99.90
22249;DHT22;67538;52.180;5.646;2023-06-22T09:33:52;25.00;99.90
22249;DHT22;67538;52.180;5.646;2023-06-22T09:36:19;25.10;99.90
22249;DHT22;67538;52.180;5.646;2023-06-22T09:38:47;25.00;99.90
22249;DHT22;67538;52.180;5.646;2023-06-22T09:41:21;25.10;99.90
22249;DHT22;67538;52.180;5.646;2023-06-22T09:43:48;25.10;99.90
22249;DHT22;67538;52.180;5.646;2023-06-22T09:46:17;25.20;99.90
22249;DHT22;67538;52.180;5.646;2023-06-22T09:48:46;25.20;99.90
22249;DHT22;67538;52.180;5.646;2023-06-22T09:51:13;25.10;99.90
22249;DHT22;67538;52.180;5.646;2023-06-22T09:53:40;25.00;99.90
22249;DHT22;67538;52.180;5.646;2023-06-22T09:56:07;25.00;99.90
22249;DHT22;67538;52.180;5.646;2023-06-22T09:58:40;25.00;99.90
22249;DHT22;67538;52.180;5.646;2023-06-22T10:01:07;25.00;99.90
22249;DHT22;67538;52.180;5.646;2023-06-22T10:03:37;25.00;99.90
22249;DHT22;67538;52.180;5.646;2023-06-22T10:06:04;25.00;99.90
22249;DHT22;67538;52.180;5.646;2023-06-22T10:08:31;25.00;99.90
22249;DHT22;67538;52.180;5.646;2023-06-22T10:10:58;24.90;99.90
22249;DHT22;67538;52.180;5.646;2023-06-22T10:13:25;24.90;99.90
22249;DHT22;67538;52.180;5.646;2023-06-22T10:15:52;24.80;99.90
22249;DHT22;67538;52.180;5.646;2023-06-22T10:18:20;24.60;99.90
22249;DHT22;67538;52.180;5.646;2023-06-22T10:20:49;24.40;99.90
22249;DHT22;67538;52.180;5.646;2023-06-22T10:23:17;24.30;99.90
22249;DHT22;67538;52.180;5.646;2023-06-22T10:25:44;24.30;99.90
22249;DHT22;67538;52.180;5.646;2023-06-22T10:28:11;24.20;99.90
22249;DHT22;67538;52.180;5.646;2023-06-22T10:30:39;24.10;99.90
22249;DHT22;67538;52.180;5.646;2023-06-22T10:33:07;24.00;99.90
22249;DHT22;67538;52.180;5.646;2023-06-22T10:35:34;24.10;99.90
22249;DHT22;67538;52.180;5.646;2023-06-22T10:38:05;24.00;99.90
22249;DHT22;67538;52.180;5.646;2023-06-22T10:40:32;24.00;99.90
22249;DHT22;67538;52.180;5.646;2023-06-22T10:42:59;24.00;99.90
22249;DHT22;67538;52.180;5.646;2023-06-22T10:45:27;24.00;99.90
22249;DHT22;67538;52.180;5.646;2023-06-22T10:47:54;23.90;99.90
22249;DHT22;67538;52.180;5.646;2023-06-22T10:50:21;23.90;99.90
22249;DHT22;67538;52.180;5.646;2023-06-22T10:52:49;24.00;99.90
22249;DHT22;67538;52.180;5.646;2023-06-22T10:55:18;24.00;99.90
22249;DHT22;67538;52.180;5.646;2023-06-22T10:57:45;23.90;99.90
22249;DHT22;67538;52.180;5.646;2023-06-22T11:00:14;24.00;99.90
22249;DHT22;67538;52.180;5.646;2023-06-22T11:02:41;24.00;99.90
22249;DHT22;67538;52.180;5.646;2023-06-22T11:05:08;24.00;99.90
22249;DHT22;67538;52.180;5.646;2023-06-22T11:07:36;24.10;99.90
22249;DHT22;67538;52.180;5.646;2023-06-22T11:10:04;24.20;99.90
22249;DHT22;67538;52.180;5.646;2023-06-22T11:12:33;24.30;99.90
22249;DHT22;67538;52.180;5.646;2023-06-22T11:15:01;24.40;99.90
22249;DHT22;67538;52.180;5.646;2023-06-22T11:17:28;24.50;99.90
22249;DHT22;67538;52.180;5.646;2023-06-22T11:19:55;24.60;99.90
22249;DHT22;67538;52.180;5.646;2023-06-22T11:22:22;24.70;99.90
22249;DHT22;67538;52.180;5.646;2023-06-22T11:24:49;24.70;99.90
22249;DHT22;67538;52.180;5.646;2023-06-22T11:27:16;24.70;99.90
22249;DHT22;67538;52.180;5.646;2023-06-22T11:29:45;24.70;99.90
22249;DHT22;67538;52.180;5.646;2023-06-22T11:32:12;24.60;99.90
22249;DHT22;67538;52.180;5.646;2023-06-22T11:34:39;24.60;99.90
22249;DHT22;67538;52.180;5.646;2023-06-22T11:37:07;24.60;99.90
22249;DHT22;67538;52.180;5.646;2023-06-22T11:39:34;24.60;99.90
22249;DHT22;67538;52.180;5.646;2023-06-22T11:42:01;24.50;99.90
22249;DHT22;67538;52.180;5.646;2023-06-22T11:44:28;24.40;99.90
22249;DHT22;67538;52.180;5.646;2023-06-22T11:46:56;24.30;99.90
22249;DHT22;67538;52.180;5.646;2023-06-22T11:49:24;24.30;99.90
22249;DHT22;67538;52.180;5.646;2023-06-22T11:51:51;24.20;99.90
22249;DHT22;67538;52.180;5.646;2023-06-22T11:54:18;24.20;99.90
22249;DHT22;67538;52.180;5.646;2023-06-22T11:56:45;24.20;99.90
22249;DHT22;67538;52.180;5.646;2023-06-22T11:59:12;24.20;99.90
22249;DHT22;67538;52.180;5.646;2023-06-22T12:01:40;24.20;99.90
22249;DHT22;67538;52.180;5.646;2023-06-22T12:04:08;24.20;99.90
22249;DHT22;67538;52.180;5.646;2023-06-22T12:06:38;24.20;99.90
22249;DHT22;67538;52.180;5.646;2023-06-22T12:09:07;24.20;99.90
22249;DHT22;67538;52.180;5.646;2023-06-22T12:11:34;24.20;99.90
22249;DHT22;67538;52.180;5.646;2023-06-22T12:14:02;24.20;99.90
22249;DHT22;67538;52.180;5.646;2023-06-22T12:16:29;24.10;99.90
22249;DHT22;67538;52.180;5.646;2023-06-22T12:18:56;24.10;99.90
22249;DHT22;67538;52.180;5.646;2023-06-22T12:21:24;24.00;99.90
22249;DHT22;67538;52.180;5.646;2023-06-22T12:23:52;24.00;99.90
22249;DHT22;67538;52.180;5.646;2023-06-22T12:26:19;24.00;99.90
22249;DHT22;67538;52.180;5.646;2023-06-22T12:28:46;24.00;99.90
22249;DHT22;67538;52.180;5.646;2023-06-22T12:31:14;23.90;99.90
22249;DHT22;67538;52.180;5.646;2023-06-22T12:33:41;23.80;99.90
22249;DHT22;67538;52.180;5.646;2023-06-22T12:36:08;23.70;99.90
22249;DHT22;67538;52.180;5.646;2023-06-22T12:38:37;23.70;99.90
22249;DHT22;67538;52.180;5.646;2023-06-22T12:41:04;23.70;99.90
22249;DHT22;67538;52.180;5.646;2023-06-22T12:43:31;23.60;99.90
22249;DHT22;67538;52.180;5.646;2023-06-22T12:45:58;23.60;99.90
22249;DHT22;67538;52.180;5.646;2023-06-22T12:48:26;23.60;99.90
22249;DHT22;67538;52.180;5.646;2023-06-22T12:50:54;23.60;99.90
22249;DHT22;67538;52.180;5.646;2023-06-22T12:53:21;23.60;99.90
22249;DHT22;67538;52.180;5.646;2023-06-22T12:55:50;23.60;99.90
22249;DHT22;67538;52.180;5.646;2023-06-22T12:58:17;23.60;99.90
22249;DHT22;67538;52.180;5.646;2023-06-22T13:00:45;23.60;99.90
22249;DHT22;67538;52.180;5.646;2023-06-22T13:03:12;23.60;99.90
22249;DHT22;67538;52.180;5.646;2023-06-22T13:05:39;23.60;99.90
22249;DHT22;67538;52.180;5.646;2023-06-22T13:08:06;23.50;99.90
22249;DHT22;67538;52.180;5.646;2023-06-22T13:10:33;23.50;99.90
22249;DHT22;67538;52.180;5.646;2023-06-22T13:13:02;23.40;99.90
22249;DHT22;67538;52.180;5.646;2023-06-22T13:15:29;23.30;99.90
22249;DHT22;67538;52.180;5.646;2023-06-22T13:17:56;23.20;99.90
22249;DHT22;67538;52.180;5.646;2023-06-22T13:20:23;23.10;99.90
22249;DHT22;67538;52.180;5.646;2023-06-22T13:22:50;23.00;99.90
22249;DHT22;67538;52.180;5.646;2023-06-22T13:25:19;22.90;99.90
22249;DHT22;67538;52.180;5.646;2023-06-22T13:27:49;22.70;99.90
22249;DHT22;67538;52.180;5.646;2023-06-22T13:30:18;22.60;99.90
22249;DHT22;67538;52.180;5.646;2023-06-22T13:32:45;22.50;99.90
22249;DHT22;67538;52.180;5.646;2023-06-22T13:35:12;22.50;99.90
22249;DHT22;67538;52.180;5.646;2023-06-22T13:37:39;22.30;99.90
22249;DHT22;67538;52.180;5.646;2023-06-22T13:40:07;22.30;99.90
22249;DHT22;67538;52.180;5.646;2023-06-22T13:42:35;22.20;99.90
22249;DHT22;67538;52.180;5.646;2023-06-22T13:45:02;22.20;99.90
22249;DHT22;67538;52.180;5.646;2023-06-22T13:47:31;22.20;99.90
22249;DHT22;67538;52.180;5.646;2023-06-22T13:49:58;22.20;99.90
22249;DHT22;67538;52.180;5.646;2023-06-22T13:52:25;22.20;99.90
22249;DHT22;67538;52.180;5.646;2023-06-22T13:54:52;22.20;99.90
22249;DHT22;67538;52.180;5.646;2023-06-22T13:57:20;22.20;99.90
22249;DHT22;67538;52.180;5.646;2023-06-22T13:59:47;22.20;99.90
22249;DHT22;67538;52.180;5.646;2023-06-22T14:02:14;22.10;99.90
22249;DHT22;67538;52.180;5.646;2023-06-22T14:04:43;22.10;99.90
22249;DHT22;67538;52.180;5.646;2023-06-22T14:07:10;22.10;99.90
22249;DHT22;67538;52.180;5.646;2023-06-22T14:09:37;22.10;99.90
22249;DHT22;67538;52.180;5.646;2023-06-22T14:12:05;22.10;99.90
22249;DHT22;67538;52.180;5.646;2023-06-22T14:14:32;22.10;99.90
22249;DHT22;67538;52.180;5.646;2023-06-22T14:16:59;22.20;99.90
22249;DHT22;67538;52.180;5.646;2023-06-22T14:19:26;22.10;99.90
22249;DHT22;67538;52.180;5.646;2023-06-22T14:21:55;22.10;99.90
22249;DHT22;67538;52.180;5.646;2023-06-22T14:24:22;22.00;99.90
22249;DHT22;67538;52.180;5.646;2023-06-22T14:26:49;21.90;99.90
22249;DHT22;67538;52.180;5.646;2023-06-22T14:29:17;21.80;99.90
22249;DHT22;67538;52.180;5.646;2023-06-22T14:31:45;21.80;99.90
22249;DHT22;67538;52.180;5.646;2023-06-22T14:34:13;21.70;99.90
22249;DHT22;67538;52.180;5.646;2023-06-22T14:36:40;21.70;99.90
22249;DHT22;67538;52.180;5.646;2023-06-22T14:39:09;21.60;99.90
22249;DHT22;67538;52.180;5.646;2023-06-22T14:41:36;21.60;99.90
22249;DHT22;67538;52.180;5.646;2023-06-22T14:44:03;21.60;99.90
22249;DHT22;67538;52.180;5.646;2023-06-22T14:46:31;21.40;99.90
22249;DHT22;67538;52.180;5.646;2023-06-22T14:48:58;21.30;99.90
22249;DHT22;67538;52.180;5.646;2023-06-22T14:51:25;21.20;99.90
22249;DHT22;67538;52.180;5.646;2023-06-22T14:53:52;21.20;99.90
22249;DHT22;67538;52.180;5.646;2023-06-22T14:56:21;21.10;99.90
22249;DHT22;67538;52.180;5.646;2023-06-22T14:58:48;21.00;99.90
22249;DHT22;67538;52.180;5.646;2023-06-22T15:01:17;21.00;99.90
22249;DHT22;67538;52.180;5.646;2023-06-22T15:03:44;21.00;99.90
22249;DHT22;67538;52.180;5.646;2023-06-22T15:06:11;20.90;99.90
22249;DHT22;67538;52.180;5.646;2023-06-22T15:08:39;20.90;99.90
22249;DHT22;67538;52.180;5.646;2023-06-22T15:11:06;20.90;99.90
22249;DHT22;67538;52.180;5.646;2023-06-22T15:13:38;20.80;99.90
22249;DHT22;67538;52.180;5.646;2023-06-22T15:16:05;20.60;99.90
22249;DHT22;67538;52.180;5.646;2023-06-22T15:18:32;20.60;99.90
22249;DHT22;67538;52.180;5.646;2023-06-22T15:21:01;20.50;99.90
22249;DHT22;67538;52.180;5.646;2023-06-22T15:23:28;20.60;99.90
22249;DHT22;67538;52.180;5.646;2023-06-22T15:25:55;20.50;99.90
22249;DHT22;67538;52.180;5.646;2023-06-22T15:28:23;20.50;99.90
22249;DHT22;67538;52.180;5.646;2023-06-22T15:30:52;20.40;99.90
22249;DHT22;67538;52.180;5.646;2023-06-22T15:33:19;20.40;99.90